createdAt,value
2019-01-25T00:00:15.304Z,71.94
2019-01-25T00:02:43.960Z,71.94
2019-01-25T00:05:12.655Z,72.08
2019-01-25T00:07:41.214Z,72.12
2019-01-25T00:10:10.580Z,71.87
2019-01-25T00:12:39.240Z,71.98
2019-01-25T00:15:10.425Z,72.15
2019-01-25T00:17:39.060Z,72.28
2019-01-25T00:20:12.622Z,72.62
2019-01-25T00:22:41.246Z,72.63
2019-01-25T00:25:10.188Z,72.67
2019-01-25T00:27:38.732Z,72.77
2019-01-25T00:30:10.522Z,72.76
2019-01-25T00:32:39.135Z,72.69
2019-01-25T00:35:07.806Z,72.60
2019-01-25T00:37:36.377Z,72.75
2019-01-25T00:40:08.098Z,72.38
2019-01-25T00:42:36.650Z,72.50
2019-01-25T00:45:07.590Z,72.44
2019-01-25T00:47:36.292Z,72.66
2019-01-25T00:50:07.920Z,72.28
2019-01-25T00:52:36.579Z,72.59
2019-01-25T00:55:07.126Z,72.74
2019-01-25T00:57:35.653Z,72.18
2019-01-25T01:00:10.121Z,72.45
2019-01-25T01:02:38.761Z,72.85
2019-01-25T01:05:07.846Z,72.87
2019-01-25T01:07:36.431Z,73.03
2019-01-25T01:10:13.740Z,72.79
2019-01-25T01:12:37.178Z,72.87
2019-01-25T01:15:08.636Z,73.04
2019-01-25T01:17:37.517Z,73.42
2019-01-25T01:20:09.121Z,73.33
2019-01-25T01:22:37.722Z,73.39
2019-01-25T01:25:06.846Z,73.29
2019-01-25T01:27:35.712Z,73.19
2019-01-25T01:30:06.957Z,73.13
2019-01-25T01:32:35.615Z,73.26
2019-01-25T01:35:05.272Z,73.09
2019-01-25T01:37:33.837Z,73.05
2019-01-25T01:40:02.684Z,73.20
2019-01-25T01:42:31.464Z,72.92
2019-01-25T01:45:00.032Z,72.91
2019-01-25T01:47:28.632Z,72.70
2019-01-25T01:49:57.176Z,72.78
2019-01-25T01:52:25.951Z,72.65
2019-01-25T01:54:54.494Z,72.71
2019-01-25T01:57:23.285Z,72.71
2019-01-25T01:59:51.877Z,72.05
2019-01-25T02:02:20.517Z,72.04
2019-01-25T02:04:49.120Z,71.98
2019-01-25T02:07:17.720Z,72.03
2019-01-25T02:09:46.438Z,71.92
2019-01-25T02:12:15.159Z,72.24
2019-01-25T02:14:43.754Z,72.42
2019-01-25T02:17:12.434Z,72.08
2019-01-25T02:19:41.021Z,72.33
2019-01-25T02:22:09.588Z,72.34
2019-01-25T02:24:38.526Z,71.97
2019-01-25T02:27:07.044Z,72.01
2019-01-25T02:29:35.497Z,72.31
2019-01-25T02:32:04.073Z,72.36
2019-01-25T02:34:32.616Z,72.31
2019-01-25T02:37:01.130Z,72.65
2019-01-25T02:39:29.687Z,72.65
2019-01-25T02:41:58.376Z,72.81
2019-01-25T02:44:26.990Z,72.95
2019-01-25T02:46:55.584Z,73.27
2019-01-25T02:49:24.115Z,73.36
2019-01-25T02:51:52.588Z,73.49
2019-01-25T02:54:21.286Z,73.33
2019-01-25T02:56:49.828Z,73.33
2019-01-25T02:59:18.485Z,73.28
2019-01-25T03:01:47.154Z,73.29
2019-01-25T03:04:16.293Z,73.22
2019-01-25T03:06:44.963Z,73.57
2019-01-25T03:09:13.602Z,73.22
2019-01-25T03:11:42.233Z,73.40
2019-01-25T03:14:10.825Z,73.76
2019-01-25T03:16:39.406Z,73.92
2019-01-25T03:19:08.051Z,73.75
2019-01-25T03:21:36.674Z,73.73
2019-01-25T03:24:05.232Z,73.63
2019-01-25T03:26:33.791Z,73.69
2019-01-25T03:29:02.491Z,73.80
2019-01-25T03:31:31.071Z,73.88
2019-01-25T03:33:59.767Z,73.75
2019-01-25T03:36:28.344Z,73.63
2019-01-25T03:38:56.949Z,73.26
2019-01-25T03:41:25.603Z,72.93
2019-01-25T03:43:54.215Z,73.20
2019-01-25T03:46:22.833Z,73.18
2019-01-25T03:48:51.427Z,73.58
2019-01-25T03:51:19.987Z,73.84
2019-01-25T03:53:48.552Z,73.78
2019-01-25T03:56:17.049Z,74.03
2019-01-25T03:58:45.579Z,74.32
2019-01-25T04:01:14.259Z,73.98
2019-01-25T04:03:42.729Z,73.95
2019-01-25T04:06:11.343Z,74.11
2019-01-25T04:08:39.899Z,74.10
2019-01-25T04:11:08.517Z,74.37
2019-01-25T04:13:37.104Z,74.36
2019-01-25T04:16:05.681Z,74.46
2019-01-25T04:18:34.407Z,74.59
2019-01-25T04:21:03.012Z,75.01
2019-01-25T04:23:31.654Z,74.86
2019-01-25T04:26:00.256Z,75.29
2019-01-25T04:28:28.901Z,75.34
2019-01-25T04:30:57.591Z,75.01
2019-01-25T04:33:26.280Z,75.30
2019-01-25T04:35:54.719Z,75.21
2019-01-25T04:38:23.357Z,75.49
2019-01-25T04:40:51.900Z,75.38
2019-01-25T04:43:20.387Z,75.59
2019-01-25T04:45:49.075Z,76.22
2019-01-25T04:48:17.659Z,76.52
2019-01-25T04:50:46.378Z,76.75
2019-01-25T04:53:15.037Z,77.28
2019-01-25T04:55:43.705Z,77.47
2019-01-25T04:58:14.196Z,77.53
2019-01-25T05:00:42.803Z,77.96
2019-01-25T05:03:11.277Z,78.16
2019-01-25T05:05:39.883Z,78.06
2019-01-25T05:08:16.467Z,78.12
2019-01-25T05:10:45.039Z,78.47
2019-01-25T05:13:13.701Z,78.50
2019-01-25T05:15:42.371Z,78.67
2019-01-25T05:18:11.237Z,78.87
2019-01-25T05:20:39.933Z,79.07
2019-01-25T05:23:09.446Z,79.17
2019-01-25T05:25:37.987Z,78.85
2019-01-25T05:28:14.239Z,78.96
2019-01-25T05:30:51.854Z,78.33
2019-01-25T05:33:20.483Z,77.96
2019-01-25T05:35:49.025Z,77.82
2019-01-25T05:38:17.715Z,78.32
2019-01-25T05:40:46.624Z,78.44
2019-01-25T05:43:15.176Z,78.47
2019-01-25T05:45:45.638Z,78.59
2019-01-25T05:48:14.396Z,78.79
2019-01-25T05:50:42.996Z,78.65
2019-01-25T05:53:13.608Z,78.65
2019-01-25T05:55:43.111Z,78.55
2019-01-25T05:58:11.870Z,78.73
2019-01-25T06:00:45.134Z,78.67
2019-01-25T06:03:15.301Z,78.71
2019-01-25T06:05:44.041Z,78.91
2019-01-25T06:08:30.076Z,79.14
2019-01-25T06:11:00.204Z,79.46
2019-01-25T06:13:28.884Z,79.43
2019-01-25T06:15:58.078Z,79.56
2019-01-25T06:18:34.573Z,79.48
2019-01-25T06:21:03.407Z,79.36
2019-01-25T06:23:31.841Z,79.39
2019-01-25T06:26:01.097Z,79.22
2019-01-25T06:28:29.847Z,79.14
2019-01-25T06:30:58.454Z,79.07
2019-01-25T06:33:27.080Z,79.21
2019-01-25T06:35:55.664Z,79.05
2019-01-25T06:38:24.476Z,78.96
2019-01-25T06:40:53.022Z,78.95
2019-01-25T06:43:21.840Z,79.28
2019-01-25T06:45:50.557Z,79.36
2019-01-25T06:48:19.275Z,79.53
2019-01-25T06:50:47.720Z,79.72
2019-01-25T06:53:16.287Z,79.88
2019-01-25T06:55:44.884Z,79.93
2019-01-25T06:58:15.141Z,80.23
2019-01-25T07:00:54.476Z,80.01
2019-01-25T07:03:23.003Z,80.20
2019-01-25T07:05:51.870Z,79.90
2019-01-25T07:08:20.536Z,79.79
2019-01-25T07:10:49.118Z,79.44
2019-01-25T07:13:17.763Z,79.73
2019-01-25T07:15:46.381Z,79.62
2019-01-25T07:18:14.900Z,79.52
2019-01-25T07:20:43.667Z,79.52
2019-01-25T07:23:12.125Z,79.39
2019-01-25T07:25:40.638Z,79.22
2019-01-25T07:28:09.187Z,79.22
2019-01-25T07:30:37.708Z,79.23
2019-01-25T07:33:06.410Z,79.09
2019-01-25T07:35:35.036Z,79.08
2019-01-25T07:38:04.051Z,79.04
2019-01-25T07:40:32.738Z,78.94
2019-01-25T07:43:01.347Z,78.79
2019-01-25T07:45:30.003Z,78.60
2019-01-25T07:47:58.611Z,77.03
2019-01-25T07:50:27.457Z,75.04
2019-01-25T07:52:56.127Z,75.17
2019-01-25T07:55:24.814Z,76.81
2019-01-25T07:57:53.631Z,77.22
2019-01-25T08:00:26.094Z,77.48
2019-01-25T08:02:55.151Z,77.77
2019-01-25T08:05:23.791Z,77.75
2019-01-25T08:07:52.363Z,77.69
2019-01-25T08:10:22.532Z,77.58
2019-01-25T08:12:51.056Z,77.39
2019-01-25T08:15:26.867Z,77.13
2019-01-25T08:17:55.482Z,78.66
2019-01-25T08:20:24.110Z,78.95
2019-01-25T08:22:52.758Z,79.43
2019-01-25T08:25:21.465Z,79.59
2019-01-25T08:27:50.189Z,79.47
2019-01-25T08:30:24.300Z,79.20
2019-01-25T08:32:52.974Z,79.13
2019-01-25T08:35:21.877Z,79.08
2019-01-25T08:37:51.029Z,79.21
2019-01-25T08:40:19.910Z,79.20
2019-01-25T08:42:48.675Z,79.16
2019-01-25T08:45:19.294Z,79.37
2019-01-25T08:47:48.082Z,79.37
2019-01-25T08:50:27.264Z,79.04
2019-01-25T08:52:56.065Z,79.01
2019-01-25T08:55:24.650Z,78.90
2019-01-25T08:57:53.214Z,79.35
2019-01-25T09:00:23.776Z,79.21
2019-01-25T09:02:52.949Z,78.91
2019-01-25T09:05:21.638Z,78.28
2019-01-25T09:07:50.218Z,77.77
2019-01-25T09:10:20.979Z,77.27
2019-01-25T09:12:49.741Z,77.61
2019-01-25T09:15:22.610Z,77.28
2019-01-25T09:17:51.451Z,77.23
2019-01-25T09:20:21.602Z,78.09
2019-01-25T09:22:50.211Z,78.00
2019-01-25T09:25:18.782Z,78.01
2019-01-25T09:27:48.134Z,78.18
2019-01-25T09:30:18.865Z,78.51
2019-01-25T09:32:47.398Z,78.45
2019-01-25T09:35:16.623Z,78.43
2019-01-25T09:37:45.172Z,77.59
2019-01-25T09:40:19.416Z,77.77
2019-01-25T09:42:47.928Z,77.36
2019-01-25T09:45:16.510Z,76.64
2019-01-25T09:47:45.139Z,75.88
2019-01-25T09:50:18.872Z,75.00
2019-01-25T09:52:47.525Z,74.07
2019-01-25T09:55:18.227Z,73.78
2019-01-25T09:57:46.904Z,73.62
2019-01-25T10:00:21.263Z,74.02
2019-01-25T10:02:49.845Z,73.32
2019-01-25T10:05:18.464Z,72.12
2019-01-25T10:07:47.056Z,71.93
2019-01-25T10:10:15.569Z,71.72
2019-01-25T10:12:44.205Z,71.28
2019-01-25T10:15:16.072Z,71.80
2019-01-25T10:17:44.570Z,72.37
2019-01-25T10:20:13.402Z,71.68
2019-01-25T10:22:44.625Z,71.83
2019-01-25T10:25:13.264Z,71.34
2019-01-25T10:27:41.889Z,69.23
2019-01-25T10:30:14.018Z,69.79
2019-01-25T10:32:42.699Z,69.64
2019-01-25T10:35:11.959Z,69.32
2019-01-25T10:37:40.602Z,67.61
2019-01-25T10:40:12.429Z,68.37
2019-01-25T10:42:45.629Z,66.66
2019-01-25T10:45:25.904Z,65.05
2019-01-25T10:47:54.413Z,66.15
2019-01-25T10:50:22.814Z,66.31
2019-01-25T10:52:51.658Z,67.12
2019-01-25T10:55:20.235Z,66.73
2019-01-25T10:57:48.794Z,67.18
2019-01-25T11:00:18.969Z,67.20
2019-01-25T11:02:47.868Z,64.70
2019-01-25T11:05:19.494Z,64.90
2019-01-25T11:07:48.068Z,64.82
2019-01-25T11:10:16.954Z,64.32
2019-01-25T11:12:45.592Z,64.15
2019-01-25T11:15:16.672Z,64.41
2019-01-25T11:17:45.228Z,63.30
2019-01-25T11:20:16.168Z,62.13
2019-01-25T11:22:44.712Z,62.02
2019-01-25T11:25:16.597Z,62.36
2019-01-25T11:27:45.287Z,61.80
2019-01-25T11:30:16.117Z,61.58
2019-01-25T11:32:44.779Z,62.27
2019-01-25T11:35:13.380Z,61.42
2019-01-25T11:37:42.116Z,61.90
2019-01-25T11:40:22.374Z,60.77
2019-01-25T11:42:50.924Z,60.67
2019-01-25T11:45:19.651Z,61.41
2019-01-25T11:47:48.896Z,60.73
2019-01-25T11:50:19.272Z,60.42
2019-01-25T11:52:47.937Z,59.75
2019-01-25T11:55:18.115Z,59.96
2019-01-25T11:57:46.747Z,60.62
2019-01-25T12:00:17.991Z,61.49
2019-01-25T12:02:46.534Z,63.22
2019-01-25T12:05:18.206Z,64.03
2019-01-25T12:07:46.756Z,64.85
2019-01-25T12:10:21.322Z,64.59
2019-01-25T12:12:49.842Z,64.75
2019-01-25T12:15:18.464Z,64.72
2019-01-25T12:17:47.081Z,62.91
2019-01-25T12:20:18.803Z,63.71
2019-01-25T12:22:47.358Z,63.63
2019-01-25T12:25:15.995Z,62.94
2019-01-25T12:27:44.625Z,63.15
2019-01-25T12:30:19.138Z,64.34
2019-01-25T12:32:47.585Z,64.98
2019-01-25T12:35:16.140Z,65.14
2019-01-25T12:37:44.721Z,65.40
2019-01-25T12:40:15.488Z,65.01
2019-01-25T12:42:44.000Z,65.54
2019-01-25T12:45:15.653Z,65.41
2019-01-25T12:47:44.253Z,64.83
2019-01-25T12:50:18.548Z,64.60
2019-01-25T12:52:47.223Z,63.94
2019-01-25T12:55:15.822Z,64.55
2019-01-25T12:57:44.508Z,64.17
2019-01-25T13:00:16.022Z,63.85
2019-01-25T13:02:44.655Z,64.72
2019-01-25T13:05:16.164Z,65.97
2019-01-25T13:07:44.661Z,66.45
2019-01-25T13:10:16.186Z,66.62
2019-01-25T13:12:44.721Z,66.60
2019-01-25T13:15:13.996Z,67.54
2019-01-25T13:17:42.620Z,68.45
2019-01-25T13:20:22.956Z,68.63
2019-01-25T13:22:51.562Z,69.19
2019-01-25T13:25:20.356Z,68.44
2019-01-25T13:27:49.212Z,68.61
2019-01-25T13:30:20.429Z,68.79
2019-01-25T13:32:49.009Z,68.92
2019-01-25T13:35:17.670Z,68.92
2019-01-25T13:37:47.987Z,69.23
2019-01-25T13:40:19.100Z,68.74
2019-01-25T13:42:47.777Z,70.04
2019-01-25T13:45:18.073Z,70.22
2019-01-25T13:47:46.624Z,70.95
2019-01-25T13:50:17.590Z,71.41
2019-01-25T13:52:46.244Z,71.52
2019-01-25T13:55:16.288Z,71.77
2019-01-25T13:57:45.023Z,71.93
2019-01-25T14:00:33.224Z,72.17
2019-01-25T14:03:01.846Z,72.28
2019-01-25T14:05:30.560Z,71.99
2019-01-25T14:07:59.454Z,71.78
2019-01-25T14:10:36.160Z,71.55
2019-01-25T14:13:05.331Z,71.06
2019-01-25T14:15:34.603Z,72.44
2019-01-25T14:18:03.209Z,72.45
2019-01-25T14:20:32.942Z,72.45
2019-01-25T14:23:01.580Z,72.69
2019-01-25T14:25:30.158Z,72.91
2019-01-25T14:27:58.950Z,72.89
2019-01-25T14:30:30.255Z,72.83
2019-01-25T14:32:58.855Z,73.18
2019-01-25T14:35:27.507Z,73.86
2019-01-25T14:37:56.099Z,74.11
2019-01-25T14:40:24.737Z,73.97
2019-01-25T14:42:53.297Z,74.13
2019-01-25T14:45:22.008Z,74.04
2019-01-25T14:47:51.027Z,73.93
2019-01-25T14:50:24.744Z,73.63
2019-01-25T14:52:53.573Z,73.71
2019-01-25T14:55:22.295Z,73.78
2019-01-25T14:57:50.996Z,74.15
2019-01-25T15:00:22.347Z,74.87
2019-01-25T15:02:51.240Z,76.05
2019-01-25T15:05:20.488Z,76.57
2019-01-25T15:07:49.261Z,77.21
2019-01-25T15:10:22.696Z,77.51
2019-01-25T15:12:52.436Z,77.89
2019-01-25T15:15:21.151Z,78.25
2019-01-25T15:17:49.974Z,78.24
2019-01-25T15:20:20.989Z,78.31
2019-01-25T15:22:49.728Z,78.87
2019-01-25T15:25:19.961Z,79.34
2019-01-25T15:27:48.917Z,79.38
2019-01-25T15:30:20.598Z,78.83
2019-01-25T15:32:49.603Z,78.76
2019-01-25T15:35:31.646Z,78.83
2019-01-25T15:38:00.641Z,78.75
2019-01-25T15:40:29.260Z,78.66
2019-01-25T15:42:58.185Z,78.37
2019-01-25T15:45:26.737Z,78.36
2019-01-25T15:47:55.305Z,78.41
2019-01-25T15:50:26.207Z,78.43
2019-01-25T15:52:54.979Z,78.45
2019-01-25T15:55:24.016Z,78.79
2019-01-25T15:57:52.622Z,78.62
2019-01-25T16:00:23.600Z,78.48
2019-01-25T16:02:52.249Z,78.22
2019-01-25T16:05:21.481Z,79.13
2019-01-25T16:07:50.101Z,79.03
2019-01-25T16:10:20.485Z,79.32
2019-01-25T16:12:49.333Z,79.65
2019-01-25T16:15:19.794Z,79.61
2019-01-25T16:17:48.737Z,79.47
2019-01-25T16:20:18.698Z,79.18
2019-01-25T16:22:48.161Z,79.20
2019-01-25T16:25:19.401Z,79.09
2019-01-25T16:27:47.971Z,79.23
2019-01-25T16:30:22.442Z,79.11
2019-01-25T16:32:51.040Z,78.62
2019-01-25T16:35:19.727Z,78.71
2019-01-25T16:37:48.346Z,78.61
2019-01-25T16:40:18.870Z,79.32
2019-01-25T16:42:47.558Z,79.47
2019-01-25T16:45:19.199Z,79.49
2019-01-25T16:47:47.758Z,79.83
2019-01-25T16:50:23.676Z,80.21
2019-01-25T16:52:47.034Z,80.07
2019-01-25T16:55:16.400Z,80.32
2019-01-25T16:57:45.033Z,80.38
2019-01-25T17:00:25.760Z,80.53
2019-01-25T17:02:54.340Z,80.48
2019-01-25T17:05:23.005Z,79.97
2019-01-25T17:07:51.492Z,79.75
2019-01-25T17:10:20.111Z,79.51
2019-01-25T17:12:48.812Z,80.03
2019-01-25T17:15:17.984Z,80.12
2019-01-25T17:17:46.764Z,79.87
2019-01-25T17:20:21.518Z,79.76
2019-01-25T17:22:51.884Z,79.71
2019-01-25T17:25:20.595Z,79.96
2019-01-25T17:27:49.379Z,80.14
2019-01-25T17:30:26.708Z,79.81
2019-01-25T17:32:56.785Z,80.34
2019-01-25T17:35:25.481Z,80.50
2019-01-25T17:37:54.187Z,80.25
2019-01-25T17:40:34.525Z,80.20
2019-01-25T17:43:03.096Z,80.14
2019-01-25T17:45:31.651Z,79.99
2019-01-25T17:48:00.370Z,79.87
2019-01-25T17:50:33.139Z,79.53
2019-01-25T17:53:01.769Z,79.43
2019-01-25T17:55:30.416Z,79.01
2019-01-25T17:57:59.024Z,79.16
2019-01-25T18:00:37.405Z,79.76
2019-01-25T18:03:06.436Z,79.75
2019-01-25T18:05:35.047Z,80.10
2019-01-25T18:08:03.729Z,80.02
2019-01-25T18:10:32.359Z,80.58
2019-01-25T18:13:01.027Z,81.15
2019-01-25T18:15:29.678Z,81.52
2019-01-25T18:17:58.309Z,81.27
2019-01-25T18:20:26.938Z,80.79
2019-01-25T18:22:55.615Z,80.88
2019-01-25T18:25:39.456Z,81.18
2019-01-25T18:28:23.094Z,81.13
2019-01-25T18:30:54.747Z,81.16
2019-01-25T18:33:23.385Z,80.64
2019-01-25T18:35:51.951Z,81.10
2019-01-25T18:38:20.581Z,80.88
2019-01-25T18:40:49.419Z,80.65
2019-01-25T18:43:18.157Z,80.25
2019-01-25T18:45:46.630Z,80.14
2019-01-25T18:48:15.312Z,79.55
2019-01-25T18:50:43.983Z,79.26
2019-01-25T18:53:12.783Z,79.26
2019-01-25T18:55:41.525Z,79.75
2019-01-25T18:58:10.178Z,80.19
2019-01-25T19:00:39.157Z,80.39
2019-01-25T19:03:07.844Z,80.32
2019-01-25T19:05:36.674Z,80.42
2019-01-25T19:08:05.698Z,80.29
2019-01-25T19:10:34.359Z,80.28
2019-01-25T19:13:02.988Z,79.97
2019-01-25T19:15:32.110Z,79.79
2019-01-25T19:18:00.717Z,79.80
2019-01-25T19:20:29.389Z,80.08
2019-01-25T19:22:58.025Z,79.94
2019-01-25T19:25:26.607Z,79.79
2019-01-25T19:27:55.179Z,79.44
2019-01-25T19:30:26.805Z,79.93
2019-01-25T19:32:55.586Z,79.22
2019-01-25T19:35:24.152Z,78.66
2019-01-25T19:37:52.658Z,78.32
2019-01-25T19:40:26.960Z,77.56
2019-01-25T19:42:55.678Z,76.67
2019-01-25T19:45:24.475Z,76.56
2019-01-25T19:48:00.715Z,75.84
2019-01-25T19:50:29.473Z,75.27
2019-01-25T19:52:58.213Z,75.00
2019-01-25T19:55:46.134Z,74.06
2019-01-25T19:58:54.729Z,74.15
2019-01-25T20:01:23.729Z,73.58
2019-01-25T20:03:52.371Z,73.39
2019-01-25T20:07:00.926Z,73.37
2019-01-25T20:09:29.573Z,72.65
2019-01-25T20:11:58.251Z,72.91
2019-01-25T20:14:27.515Z,73.09
2019-01-25T20:16:57.163Z,72.82
2019-01-25T20:19:26.144Z,73.47
2019-01-25T20:21:54.853Z,73.32
2019-01-25T20:24:23.542Z,73.31
2019-01-25T20:26:52.185Z,73.50
2019-01-25T20:29:20.927Z,73.66
2019-01-25T20:31:49.630Z,72.82
2019-01-25T20:34:18.251Z,72.37
2019-01-25T20:36:46.957Z,71.97
2019-01-25T20:39:15.787Z,71.59
2019-01-25T20:41:44.424Z,72.21
2019-01-25T20:44:13.094Z,71.66
2019-01-25T20:46:41.784Z,71.46
2019-01-25T20:49:10.561Z,71.73
2019-01-25T20:51:39.426Z,71.62
2019-01-25T20:54:08.140Z,71.68
2019-01-25T20:56:36.759Z,71.82
2019-01-25T20:59:05.674Z,71.14
2019-01-25T21:01:34.398Z,71.41
2019-01-25T21:04:03.109Z,71.61
2019-01-25T21:06:31.817Z,71.57
2019-01-25T21:09:00.597Z,71.23
2019-01-25T21:11:29.628Z,71.21
2019-01-25T21:13:58.189Z,70.97
2019-01-25T21:16:26.831Z,71.29
2019-01-25T21:18:55.568Z,70.95
2019-01-25T21:21:24.273Z,70.67
2019-01-25T21:23:52.752Z,70.66
2019-01-25T21:26:21.532Z,70.83
2019-01-25T21:28:50.130Z,71.00
2019-01-25T21:31:18.747Z,70.98
2019-01-25T21:33:47.462Z,70.90
2019-01-25T21:36:16.106Z,71.54
2019-01-25T21:41:34.447Z,71.77
2019-01-25T21:44:02.984Z,71.72
2019-01-25T21:46:31.699Z,71.74
2019-01-25T21:49:00.294Z,71.68
2019-01-25T21:51:29.055Z,71.90
2019-01-25T21:53:57.725Z,71.76
2019-01-25T21:56:26.438Z,71.59
2019-01-25T21:58:55.533Z,71.96
2019-01-25T22:01:24.135Z,72.13
2019-01-25T22:03:52.792Z,71.76
2019-01-25T22:07:01.388Z,71.76
2019-01-25T22:09:30.055Z,71.83
2019-01-25T22:11:58.663Z,72.32
2019-01-25T22:14:27.327Z,71.92
2019-01-25T22:16:56.107Z,72.10
2019-01-25T22:19:24.778Z,71.65
2019-01-25T22:21:53.432Z,71.39
2019-01-25T22:24:22.021Z,71.52
2019-01-25T22:26:50.576Z,71.59
2019-01-25T22:29:19.304Z,71.88
2019-01-25T22:32:07.025Z,71.82
2019-01-25T22:34:35.715Z,72.09
2019-01-25T22:37:04.651Z,71.67
2019-01-25T22:39:33.239Z,71.74
2019-01-25T22:42:01.998Z,71.55
2019-01-25T22:44:30.648Z,72.00
2019-01-25T22:46:59.370Z,72.01
2019-01-25T22:49:28.105Z,71.87
2019-01-25T22:51:57.003Z,72.20
2019-01-25T22:54:25.669Z,72.46
2019-01-25T22:56:54.374Z,72.78
2019-01-25T22:59:23.120Z,72.90
2019-01-25T23:01:51.898Z,72.74
2019-01-25T23:04:59.150Z,72.83
2019-01-25T23:07:27.815Z,72.88
2019-01-25T23:09:56.512Z,73.83
2019-01-25T23:12:25.541Z,73.89
2019-01-25T23:14:54.279Z,74.26
2019-01-25T23:17:22.966Z,74.36
2019-01-25T23:19:51.666Z,74.47
2019-01-25T23:22:20.280Z,75.20
2019-01-25T23:24:48.933Z,75.84
2019-01-25T23:27:17.554Z,77.14
2019-01-25T23:29:46.663Z,76.97
2019-01-25T23:32:15.276Z,77.46
2019-01-25T23:34:44.074Z,78.03
2019-01-25T23:37:12.685Z,78.46
2019-01-25T23:39:41.240Z,78.63
2019-01-25T23:42:09.904Z,78.98
2019-01-25T23:44:38.619Z,79.32
2019-01-25T23:47:07.338Z,79.13
2019-01-25T23:49:36.000Z,79.20
2019-01-25T23:52:04.674Z,79.13
2019-01-25T23:54:33.226Z,79.38
2019-01-25T23:57:01.780Z,78.94
2019-01-25T23:59:30.262Z,79.31
